createdAt,value
2023-01-29T00:01:17.737Z,102238.22
2023-01-29T00:03:53.367Z,102226.09
2023-01-29T00:06:27.063Z,102226.28
2023-01-29T00:09:00.764Z,102220.72
2023-01-29T00:11:35.006Z,102214.88
2023-01-29T00:14:08.880Z,102217.09
2023-01-29T00:16:42.678Z,102219.47
2023-01-29T00:19:17.946Z,102216.16
2023-01-29T00:21:51.476Z,102209.00
2023-01-29T00:24:25.350Z,102207.28
2023-01-29T00:26:58.975Z,102189.72
2023-01-29T00:29:32.782Z,102182.00
2023-01-29T00:32:06.618Z,102181.53
2023-01-29T00:34:41.823Z,102176.06
2023-01-29T00:37:15.494Z,102177.63
2023-01-29T00:39:49.318Z,102171.25
2023-01-29T00:42:40.746Z,102182.69
2023-01-29T00:45:14.961Z,102182.28
2023-01-29T00:47:48.595Z,102186.34
2023-01-29T00:50:23.804Z,102182.03
2023-01-29T00:52:57.382Z,102183.28
2023-01-29T00:55:31.265Z,102186.94
2023-01-29T00:58:04.734Z,102187.50
2023-01-29T01:00:38.521Z,102188.78
2023-01-29T01:03:11.030Z,102192.47
2023-01-29T01:05:46.112Z,102186.00
2023-01-29T01:08:37.162Z,102186.69
2023-01-29T01:11:11.175Z,102196.13
2023-01-29T01:13:44.839Z,102189.31
2023-01-29T01:16:20.771Z,102193.31
2023-01-29T01:18:54.392Z,102186.59
2023-01-29T01:21:29.435Z,102188.25
2023-01-29T01:24:05.926Z,102192.47
2023-01-29T01:26:39.756Z,102183.94
2023-01-29T01:29:13.556Z,102187.75
2023-01-29T01:31:47.454Z,102200.63
2023-01-29T01:34:22.047Z,102207.19
2023-01-29T01:36:57.356Z,102210.84
2023-01-29T01:39:31.118Z,102210.69
2023-01-29T01:42:05.205Z,102200.94
2023-01-29T01:45:01.076Z,102200.34
2023-01-29T01:47:39.991Z,102203.50
2023-01-29T01:50:17.636Z,102195.63
2023-01-29T01:52:56.490Z,102191.25
2023-01-29T01:55:34.224Z,102188.50
2023-01-29T01:58:13.159Z,102185.03
2023-01-29T02:00:46.794Z,102190.91
2023-01-29T02:03:41.301Z,102186.28
2023-01-29T02:06:32.239Z,102186.44
2023-01-29T02:09:33.397Z,102182.91
2023-01-29T02:12:09.851Z,102173.38
2023-01-29T02:14:45.223Z,102177.75
2023-01-29T02:17:20.579Z,102179.19
2023-01-29T02:20:03.392Z,102175.53
2023-01-29T02:22:59.052Z,102174.78
2023-01-29T02:26:09.248Z,102180.25
2023-01-29T02:28:49.007Z,102180.25
2023-01-29T02:31:32.059Z,102162.94
2023-01-29T02:34:14.326Z,102163.06
2023-01-29T02:36:51.927Z,102159.00
2023-01-29T02:39:34.164Z,102163.81
2023-01-29T02:42:16.730Z,102158.00
2023-01-29T02:44:58.529Z,102155.50
2023-01-29T02:47:40.687Z,102157.25
2023-01-29T02:50:20.467Z,102148.28
2023-01-29T02:53:03.691Z,102146.88
2023-01-29T02:55:43.454Z,102145.59
2023-01-29T02:58:22.394Z,102139.66
2023-01-29T03:01:03.903Z,102130.59
2023-01-29T03:03:41.588Z,102126.13
2023-01-29T03:06:22.336Z,102122.38
2023-01-29T03:09:00.110Z,102117.16
2023-01-29T03:11:38.268Z,102116.66
2023-01-29T03:14:16.930Z,102108.50
2023-01-29T03:16:53.480Z,102103.34
2023-01-29T03:19:34.502Z,102098.47
2023-01-29T03:22:11.443Z,102102.78
2023-01-29T03:25:05.166Z,102099.97
2023-01-29T03:28:01.675Z,102101.69
2023-01-29T03:31:00.000Z,102085.75
2023-01-29T03:33:43.404Z,102097.72
2023-01-29T03:36:21.452Z,102091.72
2023-01-29T03:38:54.997Z,102087.25
2023-01-29T03:41:34.357Z,102095.06
2023-01-29T03:44:16.714Z,102089.16
2023-01-29T03:46:57.190Z,102088.91
2023-01-29T03:49:46.850Z,102092.59
2023-01-29T03:52:25.594Z,102093.50
2023-01-29T03:55:06.877Z,102090.50
2023-01-29T03:57:45.568Z,102086.53
2023-01-29T04:00:25.959Z,102082.78
2023-01-29T04:03:07.847Z,102070.97
2023-01-29T04:05:48.134Z,102074.56
2023-01-29T04:08:27.937Z,102077.78
2023-01-29T04:11:06.861Z,102071.41
2023-01-29T04:13:41.417Z,102060.50
2023-01-29T04:16:19.586Z,102070.66
2023-01-29T04:18:54.745Z,102070.22
2023-01-29T04:21:31.814Z,102056.53
2023-01-29T04:24:07.338Z,102067.06
2023-01-29T04:26:56.603Z,102060.41
2023-01-29T04:29:44.640Z,102065.97
2023-01-29T04:32:27.426Z,102064.31
2023-01-29T04:35:10.576Z,102059.91
2023-01-29T04:37:55.268Z,102068.56
2023-01-29T04:40:38.447Z,102063.25
2023-01-29T04:43:21.282Z,102071.88
2023-01-29T04:46:10.511Z,102072.63
2023-01-29T04:49:02.755Z,102076.22
2023-01-29T04:51:44.728Z,102072.97
2023-01-29T04:54:27.648Z,102079.25
2023-01-29T04:57:10.566Z,102083.75
2023-01-29T04:59:48.625Z,102078.13
2023-01-29T05:02:25.436Z,102081.44
2023-01-29T05:04:59.932Z,102075.19
2023-01-29T05:07:38.133Z,102077.59
2023-01-29T05:10:15.706Z,102064.34
2023-01-29T05:12:55.207Z,102063.44
2023-01-29T05:15:35.354Z,102058.75
2023-01-29T05:18:10.237Z,102057.16
2023-01-29T05:20:45.523Z,102054.09
2023-01-29T05:23:20.945Z,102038.56
2023-01-29T05:25:57.668Z,102047.94
2023-01-29T05:28:30.638Z,102054.09
2023-01-29T05:31:04.308Z,102061.81
2023-01-29T05:33:38.057Z,102063.81
2023-01-29T05:36:11.745Z,102052.22
2023-01-29T05:38:45.448Z,102048.84
2023-01-29T05:41:21.018Z,102039.88
2023-01-29T05:43:54.911Z,102034.22
2023-01-29T05:46:28.547Z,102035.72
2023-01-29T05:49:02.827Z,102043.75
2023-01-29T05:51:36.632Z,102042.44
2023-01-29T05:54:12.585Z,102044.75
2023-01-29T05:56:47.662Z,102052.97
2023-01-29T05:59:21.456Z,102047.09
2023-01-29T06:01:55.032Z,102058.63
2023-01-29T06:04:28.735Z,102060.53
2023-01-29T06:07:03.421Z,102055.72
2023-01-29T06:09:37.182Z,102037.41
2023-01-29T06:12:12.929Z,102048.13
2023-01-29T06:14:46.763Z,102043.31
2023-01-29T06:17:20.586Z,102031.53
2023-01-29T06:19:54.368Z,102010.44
2023-01-29T06:22:28.122Z,102018.91
2023-01-29T06:25:01.977Z,102018.09
2023-01-29T06:27:37.148Z,102011.19
2023-01-29T06:30:12.044Z,102001.41
2023-01-29T06:32:45.732Z,102013.75
2023-01-29T06:35:19.507Z,102004.97
2023-01-29T06:37:53.210Z,101985.88
2023-01-29T06:40:26.982Z,101983.66
2023-01-29T06:43:02.668Z,101981.25
2023-01-29T06:45:36.439Z,101987.53
2023-01-29T06:48:09.998Z,101984.81
2023-01-29T06:50:43.938Z,101980.66
2023-01-29T06:53:18.162Z,101977.19
2023-01-29T06:55:55.257Z,101974.53
2023-01-29T06:58:30.245Z,101966.25
2023-01-29T07:01:05.656Z,101972.66
2023-01-29T07:03:41.517Z,101976.03
2023-01-29T07:06:15.304Z,101975.63
2023-01-29T07:08:48.847Z,101970.47
2023-01-29T07:11:23.657Z,101967.41
2023-01-29T07:13:58.601Z,101980.94
2023-01-29T07:16:32.706Z,101982.94
2023-01-29T07:19:06.272Z,101989.84
2023-01-29T07:21:40.082Z,101976.06
2023-01-29T07:24:13.795Z,101980.88
2023-01-29T07:26:47.554Z,101978.13
2023-01-29T07:29:22.462Z,101974.41
2023-01-29T07:31:56.352Z,101975.72
2023-01-29T07:34:30.055Z,101963.34
2023-01-29T07:37:04.285Z,101946.69
2023-01-29T07:39:37.869Z,101934.22
2023-01-29T07:42:11.574Z,101934.41
2023-01-29T07:44:46.522Z,101928.41
2023-01-29T07:47:20.239Z,101919.94
2023-01-29T07:49:53.834Z,101923.84
2023-01-29T07:52:27.743Z,101932.47
2023-01-29T07:55:01.341Z,101940.53
2023-01-29T07:57:35.165Z,101940.28
2023-01-29T08:00:12.737Z,101934.13
2023-01-29T08:02:46.576Z,101936.78
2023-01-29T08:05:20.583Z,101935.38
2023-01-29T08:08:06.011Z,101930.00
2023-01-29T08:10:41.608Z,101928.06
2023-01-29T08:13:16.081Z,101924.69
2023-01-29T08:15:51.125Z,101931.22
2023-01-29T08:18:24.926Z,101924.53
2023-01-29T08:21:01.784Z,101922.50
2023-01-29T08:23:35.903Z,101928.56
2023-01-29T08:26:09.715Z,101936.72
2023-01-29T08:28:43.439Z,101932.97
2023-01-29T08:31:20.472Z,101929.31
2023-01-29T08:33:55.691Z,101922.53
2023-01-29T08:36:29.686Z,101923.69
2023-01-29T08:39:03.805Z,101921.50
2023-01-29T08:41:37.453Z,101927.47
2023-01-29T08:44:11.404Z,101919.34
2023-01-29T08:46:46.302Z,101924.47
2023-01-29T08:49:20.083Z,101930.53
2023-01-29T08:51:53.920Z,101927.19
2023-01-29T08:54:27.842Z,101911.97
2023-01-29T08:57:03.860Z,101922.50
2023-01-29T08:59:38.208Z,101923.09
2023-01-29T09:02:13.536Z,101927.66
2023-01-29T09:04:47.518Z,101925.06
2023-01-29T09:07:21.873Z,101924.31
2023-01-29T09:09:56.392Z,101929.84
2023-01-29T09:12:29.897Z,101931.44
2023-01-29T09:15:03.965Z,101926.91
2023-01-29T09:17:39.473Z,101928.13
2023-01-29T09:20:13.677Z,101918.16
2023-01-29T09:22:47.372Z,101921.22
2023-01-29T09:25:21.215Z,101923.00
2023-01-29T09:27:55.239Z,101913.78
2023-01-29T09:30:29.035Z,101907.28
2023-01-29T09:33:06.067Z,101907.97
2023-01-29T09:35:42.152Z,101909.66
2023-01-29T09:38:15.728Z,101902.84
2023-01-29T09:40:57.160Z,101903.38
2023-01-29T09:43:42.176Z,101906.47
2023-01-29T09:46:22.355Z,101903.59
2023-01-29T09:49:05.281Z,101907.19
2023-01-29T09:51:42.652Z,101896.34
2023-01-29T09:54:22.731Z,101885.34
2023-01-29T09:56:58.055Z,101873.91
2023-01-29T09:59:33.187Z,101859.75
2023-01-29T10:02:11.457Z,101860.81
2023-01-29T10:05:15.474Z,101853.19
2023-01-29T10:08:14.429Z,101841.16
2023-01-29T10:10:51.508Z,101838.75
2023-01-29T10:13:33.977Z,101839.00
2023-01-29T10:16:22.802Z,101843.03
2023-01-29T10:19:16.314Z,101836.22
2023-01-29T10:22:10.817Z,101832.47
2023-01-29T10:24:53.612Z,101827.59
2023-01-29T10:27:34.833Z,101823.94
2023-01-29T10:30:10.937Z,101817.56
2023-01-29T10:32:45.418Z,101812.88
2023-01-29T10:35:26.116Z,101808.53
2023-01-29T10:38:16.919Z,101812.22
2023-01-29T10:41:00.845Z,101811.06
2023-01-29T10:43:40.144Z,101808.13
2023-01-29T10:46:24.941Z,101803.56
2023-01-29T10:49:09.679Z,101806.81
2023-01-29T10:51:57.919Z,101804.25
2023-01-29T10:54:46.644Z,101795.50
2023-01-29T10:57:27.646Z,101796.53
2023-01-29T11:00:12.992Z,101791.38
2023-01-29T11:02:50.234Z,101779.28
2023-01-29T11:05:30.776Z,101775.78
2023-01-29T11:08:09.741Z,101774.53
2023-01-29T11:10:48.195Z,101766.81
2023-01-29T11:13:27.217Z,101776.84
2023-01-29T11:16:01.032Z,101776.09
2023-01-29T11:18:50.982Z,101771.09
2023-01-29T11:21:28.697Z,101770.78
2023-01-29T11:24:16.713Z,101759.28
2023-01-29T11:26:55.287Z,101772.78
2023-01-29T11:29:34.954Z,101764.59
2023-01-29T11:32:13.527Z,101755.81
2023-01-29T11:35:01.994Z,101747.00
2023-01-29T11:37:38.330Z,101741.69
2023-01-29T11:40:37.816Z,101733.47
2023-01-29T11:43:23.597Z,101734.69
2023-01-29T11:46:00.193Z,101726.50
2023-01-29T11:48:42.465Z,101721.81
2023-01-29T11:51:23.631Z,101720.63
2023-01-29T11:53:59.412Z,101718.03
2023-01-29T11:56:41.061Z,101714.84
2023-01-29T11:59:37.300Z,101710.56
2023-01-29T12:02:28.321Z,101701.50
2023-01-29T12:05:05.900Z,101698.59
2023-01-29T12:07:42.724Z,101695.13
2023-01-29T12:10:35.422Z,101690.13
2023-01-29T12:13:26.604Z,101677.38
2023-01-29T12:16:15.502Z,101675.41
2023-01-29T12:18:55.137Z,101682.22
2023-01-29T12:21:36.904Z,101666.47
2023-01-29T12:24:20.562Z,101671.16
2023-01-29T12:26:59.149Z,101665.06
2023-01-29T12:29:37.800Z,101660.69
2023-01-29T12:32:28.901Z,101650.53
2023-01-29T12:35:07.339Z,101654.78
2023-01-29T12:37:49.651Z,101647.50
2023-01-29T12:40:28.063Z,101644.44
2023-01-29T12:43:07.772Z,101636.44
2023-01-29T12:45:44.876Z,101635.06
2023-01-29T12:48:25.586Z,101638.13
2023-01-29T12:51:08.039Z,101625.50
2023-01-29T12:53:49.071Z,101618.84
2023-01-29T12:56:30.845Z,101610.22
2023-01-29T12:59:14.932Z,101613.69
2023-01-29T13:01:53.580Z,101598.09
2023-01-29T13:04:39.181Z,101580.63
2023-01-29T13:07:17.087Z,101593.53
2023-01-29T13:09:54.334Z,101584.91
2023-01-29T13:12:28.671Z,101576.25
2023-01-29T13:15:06.827Z,101578.53
2023-01-29T13:17:44.977Z,101569.41
2023-01-29T13:20:25.089Z,101577.91
2023-01-29T13:23:04.796Z,101583.22
2023-01-29T13:25:41.869Z,101573.22
2023-01-29T13:28:21.007Z,101570.03
2023-01-29T13:31:14.288Z,101564.56
2023-01-29T13:33:55.121Z,101560.75
2023-01-29T13:36:32.245Z,101564.38
2023-01-29T13:39:08.760Z,101552.09
2023-01-29T13:41:44.139Z,101556.34
2023-01-29T13:44:23.086Z,101535.56
2023-01-29T13:46:59.715Z,101541.94
2023-01-29T13:49:40.125Z,101539.47
2023-01-29T13:52:32.531Z,101539.22
2023-01-29T13:55:09.143Z,101537.69
2023-01-29T13:57:56.635Z,101533.09
2023-01-29T14:01:01.965Z,101521.44
2023-01-29T14:04:10.135Z,101514.94
2023-01-29T14:06:50.119Z,101525.41
2023-01-29T14:10:05.810Z,101525.75
2023-01-29T14:12:46.310Z,101512.41
2023-01-29T14:15:28.825Z,101511.06
2023-01-29T14:18:15.522Z,101501.34
2023-01-29T14:21:02.367Z,101508.63
2023-01-29T14:23:42.353Z,101491.97
2023-01-29T14:26:34.202Z,101486.53
2023-01-29T14:29:32.537Z,101483.63
2023-01-29T14:32:15.780Z,101479.84
2023-01-29T14:34:51.952Z,101473.91
2023-01-29T14:37:32.631Z,101468.16
2023-01-29T14:40:21.545Z,101459.19
2023-01-29T14:43:01.133Z,101466.94
2023-01-29T14:45:37.713Z,101451.78
2023-01-29T14:48:36.171Z,101459.19
2023-01-29T14:51:11.627Z,101455.72
2023-01-29T14:53:53.090Z,101463.00
2023-01-29T14:56:34.474Z,101456.13
2023-01-29T14:59:17.409Z,101456.63
2023-01-29T15:01:55.917Z,101451.94
2023-01-29T15:04:34.492Z,101453.78
2023-01-29T15:07:18.946Z,101444.06
2023-01-29T15:10:07.900Z,101433.75
2023-01-29T15:12:54.280Z,101440.91
2023-01-29T15:15:36.325Z,101440.75
2023-01-29T15:18:16.784Z,101440.94
2023-01-29T15:20:50.485Z,101440.00
2023-01-29T15:23:28.631Z,101434.13
2023-01-29T15:26:04.278Z,101435.59
2023-01-29T15:28:39.711Z,101427.09
2023-01-29T15:31:17.556Z,101417.56
2023-01-29T15:33:56.053Z,101405.31
2023-01-29T15:36:32.635Z,101403.81
2023-01-29T15:39:15.586Z,101405.47
2023-01-29T15:41:50.799Z,101396.84
2023-01-29T15:44:24.765Z,101394.88
2023-01-29T15:47:02.216Z,101396.56
2023-01-29T15:49:40.562Z,101391.41
2023-01-29T15:52:18.797Z,101380.97
2023-01-29T15:54:53.926Z,101368.22
2023-01-29T15:57:34.236Z,101362.94
2023-01-29T16:00:21.090Z,101359.75
2023-01-29T16:02:55.562Z,101365.94
2023-01-29T16:05:33.031Z,101356.84
2023-01-29T16:08:07.957Z,101363.50
2023-01-29T16:10:43.220Z,101357.75
2023-01-29T16:13:21.806Z,101351.97
2023-01-29T16:15:56.551Z,101353.16
2023-01-29T16:18:34.536Z,101355.59
2023-01-29T16:21:15.604Z,101351.97
2023-01-29T16:23:52.093Z,101351.69
2023-01-29T16:26:29.161Z,101350.00
2023-01-29T16:29:21.756Z,101348.97
2023-01-29T16:32:01.878Z,101346.66
2023-01-29T16:34:38.813Z,101350.91
2023-01-29T16:37:24.761Z,101338.78
2023-01-29T16:39:59.155Z,101339.84
2023-01-29T16:42:35.920Z,101335.03
2023-01-29T16:45:27.686Z,101328.97
2023-01-29T16:48:02.853Z,101337.88
2023-01-29T16:50:54.049Z,101326.88
2023-01-29T16:53:30.133Z,101316.84
2023-01-29T16:56:06.841Z,101306.41
2023-01-29T16:58:40.656Z,101301.41
2023-01-29T17:01:15.416Z,101306.91
2023-01-29T17:03:56.333Z,101307.50
2023-01-29T17:06:32.779Z,101305.84
2023-01-29T17:09:08.324Z,101292.63
2023-01-29T17:11:42.762Z,101287.50
2023-01-29T17:14:20.153Z,101283.88
2023-01-29T17:16:55.919Z,101272.50
2023-01-29T17:19:30.253Z,101268.28
2023-01-29T17:22:05.573Z,101276.91
2023-01-29T17:24:40.818Z,101278.22
2023-01-29T17:27:20.039Z,101260.81
2023-01-29T17:29:54.165Z,101269.25
2023-01-29T17:32:44.273Z,101263.00
2023-01-29T17:35:19.261Z,101251.91
2023-01-29T17:37:53.136Z,101254.00
2023-01-29T17:40:36.577Z,101250.50
2023-01-29T17:43:11.706Z,101254.16
2023-01-29T17:45:45.539Z,101243.25
2023-01-29T17:48:21.859Z,101241.91
2023-01-29T17:50:57.806Z,101233.13
2023-01-29T17:53:45.358Z,101232.28
2023-01-29T17:56:27.547Z,101232.13
2023-01-29T17:59:01.877Z,101227.91
2023-01-29T18:01:35.745Z,101226.41
2023-01-29T18:04:09.933Z,101220.63
2023-01-29T18:06:45.240Z,101218.91
2023-01-29T18:09:21.475Z,101203.38
2023-01-29T18:11:56.691Z,101202.00
2023-01-29T18:14:30.242Z,101203.38
2023-01-29T18:17:04.199Z,101193.53
2023-01-29T18:19:37.654Z,101179.31
2023-01-29T18:22:13.487Z,101179.03
2023-01-29T18:24:47.070Z,101167.50
2023-01-29T18:27:22.249Z,101168.75
2023-01-29T18:29:55.958Z,101149.00
2023-01-29T18:32:29.814Z,101147.94
2023-01-29T18:35:03.756Z,101144.34
2023-01-29T18:37:37.658Z,101140.72
2023-01-29T18:40:13.787Z,101134.31
2023-01-29T18:42:49.126Z,101139.03
2023-01-29T18:45:22.728Z,101128.75
2023-01-29T18:47:57.635Z,101133.41
2023-01-29T18:50:31.893Z,101117.69
2023-01-29T18:53:07.970Z,101126.59
2023-01-29T18:55:41.972Z,101119.78
2023-01-29T18:58:28.125Z,101106.47
2023-01-29T19:01:12.018Z,101108.53
2023-01-29T19:03:45.921Z,101092.06
2023-01-29T19:06:19.594Z,101088.13
2023-01-29T19:08:53.493Z,101089.50
2023-01-29T19:11:27.430Z,101097.38
2023-01-29T19:14:02.791Z,101083.44
2023-01-29T19:16:36.408Z,101075.69
2023-01-29T19:19:10.313Z,101067.69
2023-01-29T19:21:43.960Z,101069.50
2023-01-29T19:24:18.648Z,101057.56
2023-01-29T19:26:52.413Z,101059.97
2023-01-29T19:29:27.688Z,101057.31
2023-01-29T19:32:01.462Z,101062.09
2023-01-29T19:34:35.364Z,101051.25
2023-01-29T19:37:09.291Z,101040.03
2023-01-29T19:39:43.233Z,101039.91
2023-01-29T19:42:17.408Z,101034.75
2023-01-29T19:44:53.370Z,101024.47
2023-01-29T19:47:27.120Z,101010.63
2023-01-29T19:50:00.898Z,101020.44
2023-01-29T19:52:51.076Z,101005.19
2023-01-29T19:55:25.999Z,101015.59
2023-01-29T19:57:59.649Z,101013.53
2023-01-29T20:00:36.981Z,101015.91
2023-01-29T20:03:10.691Z,101016.66
2023-01-29T20:05:44.407Z,101010.00
2023-01-29T20:08:18.348Z,101011.34
2023-01-29T20:10:52.233Z,101003.63
2023-01-29T20:13:26.278Z,100979.41
2023-01-29T20:16:03.129Z,100986.22
2023-01-29T20:18:36.668Z,100993.31
2023-01-29T20:21:12.767Z,100983.47
2023-01-29T20:23:46.397Z,100977.25
2023-01-29T20:26:21.748Z,100968.47
2023-01-29T20:28:55.533Z,100970.97
2023-01-29T20:31:30.739Z,100965.81
2023-01-29T20:34:04.377Z,100972.88
2023-01-29T20:36:38.131Z,100957.97
2023-01-29T20:39:11.789Z,100957.06
2023-01-29T20:41:45.726Z,100960.13
2023-01-29T20:44:19.415Z,100937.00
2023-01-29T20:46:54.858Z,100933.25
2023-01-29T20:49:29.000Z,100915.59
2023-01-29T20:52:02.724Z,100926.16
2023-01-29T20:54:37.081Z,100921.69
2023-01-29T20:57:10.865Z,100926.78
2023-01-29T20:59:45.117Z,100921.69
2023-01-29T21:02:20.325Z,100913.16
2023-01-29T21:04:54.021Z,100915.13
2023-01-29T21:07:27.765Z,100891.47
2023-01-29T21:10:01.511Z,100898.78
2023-01-29T21:12:35.924Z,100877.88
2023-01-29T21:15:10.846Z,100884.69
2023-01-29T21:17:48.337Z,100877.78
2023-01-29T21:20:22.055Z,100878.88
2023-01-29T21:22:56.019Z,100873.63
2023-01-29T21:25:29.702Z,100875.41
2023-01-29T21:28:04.372Z,100873.09
2023-01-29T21:30:38.322Z,100872.19
2023-01-29T21:33:13.435Z,100871.69
2023-01-29T21:35:46.920Z,100854.88
2023-01-29T21:38:20.749Z,100842.31
2023-01-29T21:40:59.911Z,100827.16
2023-01-29T21:43:33.279Z,100830.78
2023-01-29T21:46:11.538Z,100834.66
2023-01-29T21:48:46.886Z,100826.91
2023-01-29T21:51:20.423Z,100830.00
2023-01-29T21:53:54.210Z,100821.16
2023-01-29T21:56:27.744Z,100828.97
2023-01-29T21:59:02.345Z,100826.69
2023-01-29T22:01:38.691Z,100824.47
2023-01-29T22:04:15.613Z,100825.53
2023-01-29T22:06:49.236Z,100808.91
2023-01-29T22:09:23.506Z,100803.13
2023-01-29T22:11:57.318Z,100798.09
2023-01-29T22:14:31.241Z,100796.94
2023-01-29T22:17:05.828Z,100789.72
2023-01-29T22:19:41.102Z,100774.25
2023-01-29T22:22:15.527Z,100763.41
2023-01-29T22:24:50.749Z,100739.31
2023-01-29T22:27:24.579Z,100738.69
2023-01-29T22:29:58.323Z,100751.16
2023-01-29T22:32:32.900Z,100751.94
2023-01-29T22:35:09.356Z,100750.53
2023-01-29T22:37:43.048Z,100738.16
2023-01-29T22:40:17.428Z,100729.53
2023-01-29T22:42:51.092Z,100722.56
2023-01-29T22:45:24.945Z,100712.91
2023-01-29T22:47:58.561Z,100705.69
2023-01-29T22:50:33.693Z,100703.53
2023-01-29T22:53:07.966Z,100699.25
2023-01-29T22:55:41.838Z,100694.88
2023-01-29T22:58:15.361Z,100682.91
2023-01-29T23:00:50.949Z,100671.06
2023-01-29T23:03:24.674Z,100654.28
2023-01-29T23:05:59.815Z,100650.31
2023-01-29T23:08:33.738Z,100644.28
2023-01-29T23:11:15.052Z,100631.53
2023-01-29T23:13:50.378Z,100626.00
2023-01-29T23:16:28.172Z,100614.78
2023-01-29T23:19:01.960Z,100597.03
2023-01-29T23:21:37.180Z,100592.00
2023-01-29T23:24:11.678Z,100587.09
2023-01-29T23:27:02.920Z,100569.59
2023-01-29T23:29:36.548Z,100559.41
2023-01-29T23:32:10.775Z,100554.41
2023-01-29T23:34:44.407Z,100542.53
2023-01-29T23:37:19.680Z,100548.72
2023-01-29T23:39:53.350Z,100537.53
2023-01-29T23:42:27.123Z,100521.00
2023-01-29T23:45:00.639Z,100525.91
2023-01-29T23:47:34.448Z,100533.75
2023-01-29T23:50:09.012Z,100511.88
2023-01-29T23:52:44.249Z,100516.88
2023-01-29T23:55:17.798Z,100523.16
2023-01-29T23:57:51.471Z,100538.09
